Time;durP1;ratioP1;P1;durP2;ratioP2;P2;SDS_P1;SDS_P2;PMS_P1;PMS_P2;Temp;Humidity;BMP_temperature;BMP_pressure;BME280_temperature;BME280_humidity;BME280_pressure;Samples;Min_cycle;Max_cycle;Signal;HPM_P1;HPM_P2
2023/05/27 00:00:06;;;;;;;11.07;4.10;;;15.70;95.60;;;;;;5025484;28;20041;-61
2023/05/27 00:02:32;;;;;;;16.67;4.75;;;15.70;95.60;;;;;;5026051;28;20068;-61
2023/05/27 00:04:58;;;;;;;11.13;4.20;;;15.60;95.60;;;;;;5023849;28;20052;-61
2023/05/27 00:07:24;;;;;;;21.40;7.05;;;15.60;95.70;;;;;;5023498;28;20051;-61
2023/05/27 00:09:50;;;;;;;15.57;4.20;;;15.60;95.70;;;;;;5023244;28;20044;-61
2023/05/27 00:12:16;;;;;;;9.85;5.13;;;15.60;95.70;;;;;;5023854;28;20042;-61
2023/05/27 00:14:42;;;;;;;13.57;5.28;;;15.50;95.80;;;;;;5025108;28;20041;-62
2023/05/27 00:17:13;;;;;;;14.00;4.97;;;15.40;95.90;;;;;;5025831;28;20524;-61
2023/05/27 00:19:47;;;;;;;11.77;4.68;;;15.50;95.90;;;;;;5025517;28;20049;-61
2023/05/27 00:22:13;;;;;;;11.88;4.07;;;15.50;96.00;;;;;;5024260;28;20134;-62
2023/05/27 00:24:41;;;;;;;11.43;4.25;;;15.50;95.90;;;;;;5025294;28;20049;-61
2023/05/27 00:27:07;;;;;;;15.30;4.00;;;15.50;96.00;;;;;;5024346;28;20128;-62
2023/05/27 00:29:33;;;;;;;11.93;5.15;;;15.50;96.00;;;;;;5024802;28;20718;-61
2023/05/27 00:32:03;;;;;;;10.80;4.60;;;15.50;96.00;;;;;;5024556;28;20048;-61
2023/05/27 00:34:29;;;;;;;13.48;5.20;;;15.40;96.00;;;;;;5024080;28;20049;-62
2023/05/27 00:36:56;;;;;;;13.43;4.75;;;15.40;96.00;;;;;;5022215;28;20034;-62
2023/05/27 00:39:21;;;;;;;6.60;3.50;;;15.40;96.00;;;;;;5023683;28;20045;-61
2023/05/27 00:41:50;;;;;;;17.60;4.53;;;15.40;96.00;;;;;;5023464;28;20045;-61
2023/05/27 00:44:17;;;;;;;21.95;4.32;;;15.20;96.10;;;;;;5023851;28;20050;-61
2023/05/27 00:46:47;;;;;;;16.08;5.82;;;15.20;96.20;;;;;;5022910;28;20076;-62
2023/05/27 00:49:12;;;;;;;11.43;5.32;;;15.20;96.30;;;;;;5024863;28;20084;-61
2023/05/27 00:51:38;;;;;;;15.10;6.63;;;15.20;96.30;;;;;;5055010;28;20044;-61
2023/05/27 00:54:05;;;;;;;22.35;5.82;;;15.10;96.30;;;;;;5024394;28;20506;-62
2023/05/27 00:56:32;;;;;;;11.55;4.22;;;15.10;96.40;;;;;;5023227;28;20050;-62
2023/05/27 00:58:57;;;;;;;15.70;7.38;;;15.10;96.40;;;;;;5024582;28;20041;-61
2023/05/27 01:01:25;;;;;;;12.15;5.80;;;15.10;96.60;;;;;;5022255;28;20046;-61
2023/05/27 01:03:52;;;;;;;10.10;4.47;;;15.10;96.40;;;;;;5024281;28;20046;-61
2023/05/27 01:06:41;;;;;;;8.52;4.60;;;15.10;96.40;;;;;;5025699;28;20640;-61
2023/05/27 01:09:44;;;;;;;13.35;5.20;;;15.10;96.40;;;;;;4996029;28;20112;-61
2023/05/27 01:12:37;;;;;;;16.27;4.88;;;15.00;96.50;;;;;;5021838;28;20050;-61
2023/05/27 01:15:06;;;;;;;8.82;4.60;;;15.00;96.50;;;;;;5023800;28;20050;-61
2023/05/27 01:17:37;;;;;;;13.63;4.38;;;14.90;96.60;;;;;;5025517;28;20062;-61
2023/05/27 01:20:05;;;;;;;10.40;5.27;;;14.90;96.60;;;;;;5026405;28;20196;-61
2023/05/27 01:22:31;;;;;;;12.02;4.07;;;14.90;96.60;;;;;;5025992;28;20073;-61
2023/05/27 01:24:57;;;;;;;8.82;4.47;;;14.90;96.60;;;;;;5025641;28;20048;-61
2023/05/27 01:27:26;;;;;;;15.43;4.72;;;14.80;96.70;;;;;;5025622;28;20044;-61
2023/05/27 01:29:53;;;;;;;10.85;4.40;;;14.80;96.80;;;;;;5021359;28;20046;-61
2023/05/27 01:32:30;;;;;;;15.30;5.30;;;14.80;96.80;;;;;;5023000;28;20594;-61
2023/05/27 01:35:22;;;;;;;15.30;6.00;;;14.80;96.80;;;;;;5025477;28;20087;-61
2023/05/27 01:37:49;;;;;;;13.38;3.97;;;14.70;96.80;;;;;;5022901;28;20132;-62
2023/05/27 01:40:15;;;;;;;16.77;6.57;;;14.70;96.80;;;;;;5023180;28;20041;-61
2023/05/27 01:42:43;;;;;;;12.23;7.28;;;14.70;96.90;;;;;;5025224;28;20630;-62
2023/05/27 01:45:09;;;;;;;10.38;4.25;;;14.70;96.90;;;;;;5022486;28;20057;-61
2023/05/27 01:47:35;;;;;;;8.90;4.43;;;14.40;96.80;;;;;;5022924;28;20038;-62
2023/05/27 01:50:01;;;;;;;10.10;4.82;;;14.80;96.90;;;;;;5023054;28;20045;-62
2023/05/27 01:52:27;;;;;;;14.07;6.28;;;14.70;96.90;;;;;;5022425;28;20046;-61
2023/05/27 01:54:52;;;;;;;11.70;4.90;;;14.70;96.90;;;;;;5022784;28;20037;-62
2023/05/27 01:57:18;;;;;;;22.80;6.85;;;14.70;96.90;;;;;;5023902;28;20060;-61
2023/05/27 01:59:44;;;;;;;12.02;5.93;;;14.60;96.80;;;;;;5019164;28;20784;-61
2023/05/27 02:02:10;;;;;;;11.50;4.38;;;14.60;96.90;;;;;;5017971;28;20045;-61
2023/05/27 02:04:36;;;;;;;13.05;4.80;;;14.60;96.90;;;;;;5022220;28;20046;-62
2023/05/27 02:07:03;;;;;;;10.32;4.13;;;14.50;97.00;;;;;;5024454;28;20033;-61
2023/05/27 02:09:29;;;;;;;14.73;4.95;;;14.50;97.00;;;;;;5021742;28;20092;-61
2023/05/27 02:11:54;;;;;;;18.45;4.85;;;14.50;97.10;;;;;;5023674;28;20481;-61
2023/05/27 02:14:20;;;;;;;13.05;4.47;;;14.40;97.10;;;;;;5022835;28;20124;-62
2023/05/27 02:16:49;;;;;;;10.02;3.70;;;14.40;97.20;;;;;;5023970;28;20515;-62
2023/05/27 02:19:15;;;;;;;14.52;4.55;;;14.40;97.20;;;;;;5022579;28;20046;-61
2023/05/27 02:21:41;;;;;;;11.57;4.00;;;14.40;97.20;;;;;;5023234;28;20052;-61
2023/05/27 02:24:07;;;;;;;12.75;4.82;;;14.40;97.40;;;;;;5021578;28;20073;-61
2023/05/27 02:26:34;;;;;;;16.27;5.38;;;14.40;97.20;;;;;;5025354;28;20049;-61
2023/05/27 02:29:00;;;;;;;13.55;4.13;;;14.30;97.30;;;;;;5053065;28;20041;-61
2023/05/27 02:31:26;;;;;;;8.63;4.15;;;14.30;97.30;;;;;;5021297;28;20053;-61
2023/05/27 02:33:51;;;;;;;15.55;6.18;;;14.30;97.30;;;;;;5020758;28;20056;-61
2023/05/27 02:36:18;;;;;;;11.65;4.45;;;14.30;97.30;;;;;;5021166;28;20050;-61
2023/05/27 02:38:44;;;;;;;14.13;4.63;;;14.30;97.30;;;;;;5022120;28;20106;-62
2023/05/27 02:41:10;;;;;;;9.93;4.15;;;14.20;97.40;;;;;;5021565;28;20046;-61
2023/05/27 02:43:36;;;;;;;11.45;4.07;;;14.20;97.70;;;;;;5021293;28;20133;-61
2023/05/27 02:46:01;;;;;;;10.10;5.03;;;14.20;97.40;;;;;;5022413;28;20271;-61
2023/05/27 02:48:27;;;;;;;18.65;4.88;;;14.20;97.50;;;;;;5055000;28;20042;-61
2023/05/27 02:50:53;;;;;;;16.17;5.85;;;14.20;97.50;;;;;;5022150;28;20045;-61
2023/05/27 02:53:19;;;;;;;9.88;4.95;;;14.10;97.50;;;;;;5023291;28;20531;-61
2023/05/27 02:55:44;;;;;;;12.38;4.80;;;14.10;97.50;;;;;;5023715;28;20532;-61
2023/05/27 02:58:10;;;;;;;13.15;4.40;;;14.10;97.50;;;;;;5022911;28;20152;-61
2023/05/27 03:00:36;;;;;;;10.35;4.53;;;14.10;97.50;;;;;;5022405;28;20041;-61
2023/05/27 03:03:04;;;;;;;12.48;5.05;;;14.10;97.50;;;;;;5020819;28;20046;-61
2023/05/27 03:05:30;;;;;;;16.33;5.35;;;14.10;97.60;;;;;;5022652;28;20578;-62
2023/05/27 03:07:55;;;;;;;15.38;4.70;;;14.00;97.50;;;;;;5024255;28;20081;-61
2023/05/27 03:10:21;;;;;;;10.85;4.68;;;14.00;97.60;;;;;;5021161;28;20590;-61
2023/05/27 03:12:47;;;;;;;14.90;5.05;;;14.00;97.60;;;;;;5021669;28;20042;-61
2023/05/27 03:15:12;;;;;;;12.40;5.47;;;13.90;97.60;;;;;;5024804;28;20116;-61
2023/05/27 03:17:38;;;;;;;11.50;5.78;;;14.00;97.60;;;;;;5025316;28;20037;-61
2023/05/27 03:20:07;;;;;;;12.23;6.07;;;14.00;97.60;;;;;;5027181;28;20041;-61
2023/05/27 03:22:34;;;;;;;13.60;5.20;;;13.90;97.60;;;;;;5025444;28;20073;-61
2023/05/27 03:25:00;;;;;;;11.13;4.88;;;13.90;97.70;;;;;;5042140;28;20128;-62
2023/05/27 03:27:26;;;;;;;16.20;5.47;;;13.90;97.60;;;;;;5023880;28;20038;-62
2023/05/27 03:29:52;;;;;;;14.82;4.40;;;13.80;97.70;;;;;;5027751;28;20189;-61
2023/05/27 03:32:17;;;;;;;13.35;5.43;;;13.60;97.70;;;;;;5025713;28;20128;-61
2023/05/27 03:34:43;;;;;;;8.63;4.20;;;13.70;97.70;;;;;;5025649;28;20738;-61
2023/05/27 03:37:09;;;;;;;10.40;3.95;;;13.80;97.80;;;;;;5025786;28;20037;-61
2023/05/27 03:39:35;;;;;;;13.10;6.10;;;13.80;97.70;;;;;;5024935;28;20089;-61
2023/05/27 03:42:01;;;;;;;12.65;4.53;;;13.70;97.70;;;;;;5025651;28;20117;-61
2023/05/27 03:44:26;;;;;;;11.55;5.43;;;13.70;97.70;;;;;;5022365;28;20076;-61
2023/05/27 03:46:52;;;;;;;9.30;5.25;;;13.70;97.80;;;;;;5026391;28;20096;-61
2023/05/27 03:49:18;;;;;;;11.77;4.72;;;13.70;97.80;;;;;;5025696;28;20109;-61
2023/05/27 03:51:44;;;;;;;11.18;5.28;;;13.70;97.70;;;;;;5025126;28;20113;-61
2023/05/27 03:54:10;;;;;;;12.23;4.55;;;13.70;97.80;;;;;;5022845;28;20460;-61
2023/05/27 03:56:35;;;;;;;8.70;4.20;;;13.60;97.80;;;;;;5025012;28;20088;-62
2023/05/27 03:59:01;;;;;;;13.73;5.15;;;13.60;97.80;;;;;;5021162;28;20390;-61
2023/05/27 04:01:27;;;;;;;14.02;4.07;;;13.60;97.80;;;;;;5022866;28;20496;-61
2023/05/27 04:03:53;;;;;;;11.35;5.18;;;13.60;97.80;;;;;;5026518;28;20038;-61
2023/05/27 04:06:19;;;;;;;12.30;3.85;;;13.60;97.80;;;;;;5023890;28;20038;-61
2023/05/27 04:08:44;;;;;;;16.38;6.68;;;13.60;97.80;;;;;;5025600;28;20049;-61
2023/05/27 04:11:14;;;;;;;12.55;5.05;;;13.60;97.80;;;;;;5024189;28;20050;-62
2023/05/27 04:13:40;;;;;;;10.50;4.65;;;13.60;97.80;;;;;;5024412;28;20172;-61
2023/05/27 04:16:07;;;;;;;11.50;4.47;;;13.50;97.80;;;;;;5024731;28;20058;-62
2023/05/27 04:18:33;;;;;;;10.88;6.13;;;13.60;97.80;;;;;;5023520;28;20094;-61
2023/05/27 04:21:00;;;;;;;14.85;5.70;;;13.50;97.80;;;;;;5024064;28;20073;-61
2023/05/27 04:23:25;;;;;;;13.13;4.57;;;13.50;97.90;;;;;;5026132;28;20219;-61
2023/05/27 04:25:52;;;;;;;16.98;4.20;;;13.50;97.90;;;;;;5024642;28;20139;-61
2023/05/27 04:28:18;;;;;;;9.05;5.22;;;13.50;97.90;;;;;;5022635;28;20050;-61
2023/05/27 04:30:45;;;;;;;12.80;5.63;;;13.40;98.20;;;;;;5025906;28;20050;-61
2023/05/27 04:33:13;;;;;;;6.70;3.65;;;13.40;97.90;;;;;;5023668;28;20799;-61
2023/05/27 04:35:43;;;;;;;17.73;4.85;;;13.40;98.00;;;;;;5025563;28;20045;-61
2023/05/27 04:38:10;;;;;;;7.05;3.88;;;13.30;98.00;;;;;;5023345;28;20045;-61
2023/05/27 04:40:36;;;;;;;12.70;3.80;;;13.30;98.00;;;;;;5025187;28;20897;-61
2023/05/27 04:43:02;;;;;;;12.50;4.70;;;13.30;98.00;;;;;;5026590;28;20041;-61
2023/05/27 04:45:29;;;;;;;12.65;4.82;;;13.30;98.00;;;;;;5024031;28;20555;-62
2023/05/27 04:47:55;;;;;;;10.35;3.92;;;13.30;98.10;;;;;;5022732;28;20124;-61
2023/05/27 04:50:23;;;;;;;13.85;4.47;;;13.30;98.00;;;;;;5023580;28;20045;-61
2023/05/27 04:52:48;;;;;;;16.90;5.70;;;13.30;98.10;;;;;;5023528;28;20132;-60
2023/05/27 04:55:15;;;;;;;13.80;4.25;;;13.30;98.10;;;;;;5023471;28;20046;-61
2023/05/27 04:57:40;;;;;;;13.63;4.55;;;13.30;98.20;;;;;;5025441;28;20596;-61
2023/05/27 05:02:36;;;;;;;11.25;4.03;;;13.30;98.20;;;;;;5024632;28;20080;-61
2023/05/27 05:05:02;;;;;;;14.68;4.15;;;13.30;98.20;;;;;;5024259;28;20033;-61
2023/05/27 05:07:28;;;;;;;13.55;4.25;;;13.30;98.10;;;;;;5025614;28;20100;-61
2023/05/27 05:09:54;;;;;;;16.80;3.75;;;13.30;98.10;;;;;;5022905;28;20067;-61
2023/05/27 05:12:20;;;;;;;8.82;3.80;;;13.30;98.10;;;;;;5024575;28;20079;-60
2023/05/27 05:14:46;;;;;;;9.23;4.05;;;13.30;98.10;;;;;;5024847;28;20614;-61
2023/05/27 05:17:11;;;;;;;11.73;5.00;;;13.30;98.50;;;;;;5024281;28;20057;-61
2023/05/27 05:19:38;;;;;;;11.60;4.32;;;13.30;98.30;;;;;;5024220;28;20051;-61
2023/05/27 05:22:04;;;;;;;8.13;3.53;;;13.40;98.40;;;;;;5024550;28;20053;-60
2023/05/27 05:24:30;;;;;;;13.05;4.60;;;13.40;98.30;;;;;;5006484;28;20037;-60
2023/05/27 05:26:56;;;;;;;12.38;5.90;;;13.40;98.30;;;;;;5021648;28;20045;-61
2023/05/27 05:29:22;;;;;;;9.60;3.95;;;13.40;98.20;;;;;;5022285;28;20038;-61
2023/05/27 05:31:48;;;;;;;8.20;3.65;;;13.40;98.20;;;;;;5025132;28;20144;-60
2023/05/27 05:34:13;;;;;;;14.90;4.00;;;13.40;98.30;;;;;;5023569;28;20566;-61
2023/05/27 05:36:39;;;;;;;11.57;3.97;;;13.40;98.30;;;;;;5025758;28;20037;-61
2023/05/27 05:39:05;;;;;;;9.48;4.40;;;13.40;98.40;;;;;;5023028;28;20053;-60
2023/05/27 05:41:31;;;;;;;9.88;3.42;;;13.40;98.30;;;;;;5024134;28;20049;-60
2023/05/27 05:43:56;;;;;;;13.13;4.70;;;13.50;98.40;;;;;;5022842;28;20034;-61
2023/05/27 05:46:22;;;;;;;6.57;4.05;;;13.50;98.70;;;;;;5025210;28;20542;-61
2023/05/27 05:48:52;;;;;;;9.27;4.38;;;13.50;98.40;;;;;;5021528;28;20045;-61
2023/05/27 05:51:17;;;;;;;7.10;3.33;;;13.50;98.40;;;;;;5025251;28;20077;-61
2023/05/27 05:53:43;;;;;;;16.98;4.18;;;13.50;98.50;;;;;;5024505;28;20120;-61
2023/05/27 05:56:09;;;;;;;10.90;3.85;;;13.50;98.50;;;;;;5025120;28;20571;-61
2023/05/27 05:58:35;;;;;;;11.90;4.22;;;13.60;98.60;;;;;;5021957;28;20049;-61
2023/05/27 06:01:01;;;;;;;12.70;3.67;;;13.60;98.60;;;;;;5024892;28;20495;-60
2023/05/27 06:03:27;;;;;;;5.13;3.42;;;13.60;98.40;;;;;;5024326;28;20050;-61
2023/05/27 06:05:53;;;;;;;8.02;2.97;;;13.70;98.60;;;;;;5025894;28;20050;-60
2023/05/27 06:08:18;;;;;;;8.02;4.15;;;13.70;98.60;;;;;;5020754;28;20058;-60
2023/05/27 06:10:45;;;;;;;9.60;4.78;;;13.60;98.50;;;;;;5023295;28;20845;-61
2023/05/27 06:13:11;;;;;;;8.00;3.00;;;13.60;98.50;;;;;;5024390;28;20076;-61
2023/05/27 06:15:37;;;;;;;12.52;3.88;;;13.60;98.60;;;;;;5023669;28;20128;-60
2023/05/27 06:18:04;;;;;;;12.90;3.97;;;13.70;98.70;;;;;;5026408;28;20054;-61
2023/05/27 06:20:29;;;;;;;11.40;3.42;;;13.70;98.90;;;;;;5023279;28;20129;-61
2023/05/27 06:22:55;;;;;;;13.48;5.40;;;13.80;98.70;;;;;;5019025;28;20421;-61
2023/05/27 06:25:21;;;;;;;10.77;4.30;;;13.80;98.70;;;;;;5023106;28;20041;-61
2023/05/27 06:27:47;;;;;;;13.13;4.60;;;13.80;98.70;;;;;;5021010;28;20045;-61
2023/05/27 06:30:13;;;;;;;12.57;4.30;;;13.80;98.70;;;;;;5026233;28;20042;-61
2023/05/27 06:32:39;;;;;;;10.98;4.03;;;13.90;98.80;;;;;;5022105;28;20076;-61
2023/05/27 06:35:05;;;;;;;12.68;7.35;;;13.90;98.80;;;;;;5024473;28;20054;-61
2023/05/27 06:37:30;;;;;;;12.45;4.55;;;13.90;98.80;;;;;;5021911;28;20159;-61
2023/05/27 06:39:56;;;;;;;11.95;2.35;;;13.90;98.80;;;;;;5024271;28;20495;-60
2023/05/27 06:42:22;;;;;;;13.23;3.17;;;14.00;98.80;;;;;;5022529;28;20532;-60
2023/05/27 06:44:48;;;;;;;9.77;4.53;;;14.00;98.80;;;;;;5023424;28;20072;-62
2023/05/27 06:47:14;;;;;;;12.55;4.28;;;14.00;98.90;;;;;;5023621;28;20046;-61
2023/05/27 06:49:40;;;;;;;7.72;4.03;;;14.10;98.90;;;;;;5026896;28;20433;-60
2023/05/27 06:52:06;;;;;;;13.23;5.28;;;14.10;98.90;;;;;;5025400;28;20049;-61
2023/05/27 06:54:32;;;;;;;10.20;4.07;;;14.10;98.90;;;;;;5025914;28;20073;-61
2023/05/27 06:56:58;;;;;;;8.57;4.22;;;14.10;98.90;;;;;;5027013;28;20108;-60
2023/05/27 06:59:24;;;;;;;7.35;3.60;;;14.20;99.00;;;;;;5025216;28;20065;-59
2023/05/27 07:01:49;;;;;;;15.10;3.33;;;14.20;99.00;;;;;;5027780;28;20044;-58
2023/05/27 07:04:16;;;;;;;13.25;4.97;;;14.20;99.00;;;;;;5026904;28;20047;-56
2023/05/27 07:06:42;;;;;;;6.32;3.05;;;14.20;99.40;;;;;;5026153;28;20046;-55
2023/05/27 07:09:08;;;;;;;10.88;4.82;;;14.30;99.20;;;;;;5024158;28;20044;-56
2023/05/27 07:11:34;;;;;;;8.25;2.75;;;14.30;99.20;;;;;;5024900;28;20053;-55
2023/05/27 07:14:00;;;;;;;14.48;4.75;;;14.30;99.30;;;;;;5026593;28;20095;-55
2023/05/27 07:16:26;;;;;;;9.15;4.40;;;14.40;99.30;;;;;;5026214;28;20504;-55
2023/05/27 07:18:52;;;;;;;9.60;3.75;;;14.40;99.40;;;;;;5027372;28;20041;-55
2023/05/27 07:21:18;;;;;;;11.52;3.78;;;14.40;99.50;;;;;;5024949;28;20484;-55
2023/05/27 07:23:43;;;;;;;12.00;4.43;;;14.40;99.60;;;;;;5027206;28;20111;-55
2023/05/27 07:26:09;;;;;;;13.35;3.70;;;14.50;99.60;;;;;;5027247;28;20046;-55
2023/05/27 07:28:37;;;;;;;7.65;4.07;;;14.50;99.70;;;;;;5026473;28;20073;-55
2023/05/27 07:31:03;;;;;;;11.48;5.82;;;14.60;99.80;;;;;;5027933;28;20148;-55
2023/05/27 07:33:29;;;;;;;12.15;6.20;;;14.60;99.90;;;;;;5026289;28;20046;-55
2023/05/27 07:35:55;;;;;;;11.10;4.28;;;14.70;99.90;;;;;;5027729;28;20046;-55
2023/05/27 07:38:20;;;;;;;14.57;5.22;;;14.70;99.90;;;;;;5009648;28;20100;-55
2023/05/27 07:40:46;;;;;;;15.70;6.00;;;14.70;99.90;;;;;;4995422;28;20087;-55
2023/05/27 07:43:12;;;;;;;9.00;4.32;;;14.80;99.90;;;;;;5025959;28;20532;-58
2023/05/27 07:45:38;;;;;;;12.50;4.32;;;14.90;99.90;;;;;;5026302;28;20431;-55
2023/05/27 07:48:03;;;;;;;13.95;4.47;;;14.90;99.90;;;;;;5057683;28;20095;-55
2023/05/27 07:50:29;;;;;;;5.97;3.47;;;14.90;99.90;;;;;;5026428;28;20415;-55
2023/05/27 07:52:55;;;;;;;14.00;3.92;;;15.00;99.90;;;;;;5027656;28;20042;-55
2023/05/27 07:55:21;;;;;;;13.88;3.70;;;15.00;99.90;;;;;;5056712;28;20064;-55
2023/05/27 07:57:47;;;;;;;11.73;3.95;;;15.10;99.90;;;;;;5025483;28;20050;-55
2023/05/27 08:00:13;;;;;;;14.25;3.95;;;15.10;99.90;;;;;;5025552;28;20542;-55
2023/05/27 08:02:38;;;;;;;11.63;4.10;;;15.10;99.90;;;;;;5025826;28;20052;-55
2023/05/27 08:05:04;;;;;;;13.57;4.88;;;15.20;99.90;;;;;;5026697;28;20045;-55
2023/05/27 08:07:30;;;;;;;9.00;3.83;;;15.20;99.90;;;;;;5026684;28;20116;-56
2023/05/27 08:09:56;;;;;;;10.10;3.65;;;15.30;99.90;;;;;;5027578;28;20045;-56
2023/05/27 08:12:22;;;;;;;10.32;4.38;;;15.30;99.90;;;;;;5025379;28;20546;-56
2023/05/27 08:14:48;;;;;;;9.02;4.80;;;15.40;99.90;;;;;;5026069;28;20703;-56
2023/05/27 08:17:14;;;;;;;9.40;4.75;;;15.40;99.90;;;;;;5024495;28;20056;-55
2023/05/27 08:19:40;;;;;;;13.35;4.20;;;15.50;99.90;;;;;;5024553;28;20049;-58
2023/05/27 08:22:08;;;;;;;14.80;4.80;;;15.50;99.90;;;;;;5028043;28;20715;-55
2023/05/27 08:24:34;;;;;;;14.10;4.20;;;15.50;99.90;;;;;;5024887;28;20144;-56
2023/05/27 08:27:02;;;;;;;15.05;4.88;;;15.60;99.90;;;;;;5026816;28;20042;-56
2023/05/27 08:29:30;;;;;;;9.90;4.72;;;15.70;99.90;;;;;;5024505;28;20121;-56
2023/05/27 08:31:56;;;;;;;12.98;3.85;;;15.70;99.90;;;;;;5025058;28;20038;-56
2023/05/27 08:34:23;;;;;;;11.50;5.15;;;15.80;99.90;;;;;;5025024;28;20156;-56
2023/05/27 08:36:48;;;;;;;12.00;4.80;;;15.80;99.90;;;;;;5023751;28;20045;-56
2023/05/27 08:39:14;;;;;;;14.15;5.43;;;15.80;99.90;;;;;;5053556;28;20811;-56
2023/05/27 08:41:41;;;;;;;13.25;3.83;;;15.90;99.90;;;;;;5056491;28;20431;-56
2023/05/27 08:44:06;;;;;;;15.15;4.88;;;15.90;99.90;;;;;;5025025;28;20049;-56
2023/05/27 08:46:33;;;;;;;11.30;4.28;;;16.00;99.90;;;;;;5053942;28;20424;-56
2023/05/27 08:48:59;;;;;;;11.10;5.00;;;16.00;99.90;;;;;;5022569;28;20045;-56
2023/05/27 08:51:27;;;;;;;13.80;4.75;;;16.10;99.90;;;;;;5024591;28;21196;-56
2023/05/27 08:53:53;;;;;;;13.43;4.80;;;16.20;99.90;;;;;;5021749;28;20049;-56
2023/05/27 08:56:22;;;;;;;9.48;3.38;;;16.20;99.90;;;;;;5055720;28;20084;-56
2023/05/27 08:58:48;;;;;;;13.85;4.65;;;16.20;99.90;;;;;;5022256;28;20100;-56
2023/05/27 09:01:18;;;;;;;6.93;3.40;;;16.30;99.90;;;;;;5025922;28;20087;-55
2023/05/27 09:03:44;;;;;;;10.68;4.05;;;16.30;99.90;;;;;;5023186;28;20042;-56
2023/05/27 09:06:10;;;;;;;5.15;2.42;;;16.30;99.90;;;;;;5023480;28;20100;-56
2023/05/27 09:08:36;;;;;;;12.82;4.55;;;16.30;99.90;;;;;;5025452;28;20641;-56
2023/05/27 09:11:02;;;;;;;14.77;5.15;;;16.30;99.90;;;;;;5022162;28;20076;-57
2023/05/27 09:13:31;;;;;;;12.90;5.80;;;16.30;99.90;;;;;;5025514;28;20065;-56
2023/05/27 09:16:04;;;;;;;12.95;4.80;;;16.30;99.90;;;;;;5024318;28;20045;-56
2023/05/27 09:18:35;;;;;;;11.07;4.00;;;16.40;99.90;;;;;;5023000;28;20054;-56
2023/05/27 09:21:01;;;;;;;16.05;6.28;;;16.40;99.90;;;;;;5023427;28;20053;-56
2023/05/27 09:23:27;;;;;;;13.80;4.20;;;16.50;99.90;;;;;;5024949;28;20588;-55
2023/05/27 09:25:53;;;;;;;13.02;4.05;;;16.60;99.90;;;;;;5025042;28;20605;-56
2023/05/27 09:28:25;;;;;;;9.55;4.18;;;16.60;99.90;;;;;;5024334;28;20070;-55
2023/05/27 09:31:02;;;;;;;10.07;4.05;;;16.70;99.90;;;;;;5023860;28;20506;-56
2023/05/27 09:33:34;;;;;;;10.23;4.60;;;16.70;99.90;;;;;;5025071;28;20049;-56
2023/05/27 09:36:01;;;;;;;13.52;4.93;;;16.70;99.90;;;;;;5024732;28;20038;-56
2023/05/27 09:38:31;;;;;;;12.48;3.88;;;16.70;99.90;;;;;;5023580;28;21228;-55
2023/05/27 09:40:58;;;;;;;12.18;3.83;;;16.80;99.90;;;;;;5024173;28;20157;-55
2023/05/27 09:43:27;;;;;;;4.93;3.08;;;16.90;99.90;;;;;;5023685;28;20578;-55
2023/05/27 09:46:11;;;;;;;8.48;3.25;;;16.90;99.90;;;;;;5022233;28;20567;-56
2023/05/27 09:48:38;;;;;;;14.85;3.70;;;17.00;99.90;;;;;;5019490;28;20038;-55
2023/05/27 09:51:04;;;;;;;10.18;3.95;;;17.00;99.90;;;;;;5024279;28;20044;-55
2023/05/27 09:53:30;;;;;;;10.85;4.68;;;17.10;99.90;;;;;;5022356;28;20529;-55
2023/05/27 09:55:57;;;;;;;11.75;4.45;;;17.10;99.90;;;;;;5023829;28;20037;-56
2023/05/27 09:58:24;;;;;;;8.68;3.70;;;17.20;99.90;;;;;;5021560;28;20041;-56
2023/05/27 10:00:50;;;;;;;14.85;4.82;;;17.20;99.90;;;;;;5005333;28;20330;-56
2023/05/27 10:03:20;;;;;;;14.52;4.85;;;17.30;99.90;;;;;;5021670;28;20065;-56
2023/05/27 10:05:48;;;;;;;7.13;3.60;;;17.30;99.90;;;;;;5022614;28;20048;-60
2023/05/27 10:08:14;;;;;;;12.93;4.93;;;17.40;99.90;;;;;;5022766;28;20046;-59
2023/05/27 10:10:40;;;;;;;6.65;3.15;;;17.50;99.90;;;;;;5024363;28;20732;-59
2023/05/27 10:13:06;;;;;;;8.80;4.38;;;17.50;99.90;;;;;;5024013;28;20147;-60
2023/05/27 10:15:33;;;;;;;8.75;4.47;;;17.60;99.90;;;;;;5019773;28;20056;-59
2023/05/27 10:18:10;;;;;;;11.77;5.20;;;17.60;99.90;;;;;;5024368;28;20544;-59
2023/05/27 10:20:43;;;;;;;10.52;4.60;;;17.60;99.90;;;;;;5022194;28;20164;-59
2023/05/27 10:23:11;;;;;;;13.15;4.68;;;17.70;99.90;;;;;;5021689;28;21298;-61
2023/05/27 10:26:00;;;;;;;9.65;5.72;;;17.80;99.90;;;;;;5021765;28;20049;-60
2023/05/27 10:28:39;;;;;;;11.63;4.82;;;17.80;99.90;;;;;;5020753;28;20043;-60
2023/05/27 10:31:13;;;;;;;15.10;4.82;;;17.90;99.90;;;;;;5020919;28;20330;-60
2023/05/27 10:33:44;;;;;;;9.27;3.47;;;17.90;99.90;;;;;;5021706;28;20117;-59
2023/05/27 10:36:14;;;;;;;15.10;5.60;;;18.00;99.90;;;;;;5024357;28;20052;-60
2023/05/27 10:38:43;;;;;;;10.02;4.43;;;18.10;99.90;;;;;;5022551;28;20125;-59
2023/05/27 10:41:09;;;;;;;15.23;4.97;;;18.10;99.70;;;;;;5021104;28;20037;-59
2023/05/27 10:43:36;;;;;;;8.85;4.00;;;18.20;99.20;;;;;;5021425;28;20561;-60
2023/05/27 10:46:37;;;;;;;12.02;4.25;;;18.20;99.20;;;;;;5024381;28;20591;-60
2023/05/27 10:49:22;;;;;;;7.35;3.90;;;18.30;99.00;;;;;;5024117;28;20099;-59
2023/05/27 10:51:48;;;;;;;11.52;4.40;;;18.30;98.90;;;;;;5023130;28;20053;-59
2023/05/27 10:54:16;;;;;;;9.70;3.50;;;18.50;98.50;;;;;;5024527;28;21015;-59
2023/05/27 10:56:49;;;;;;;13.90;4.57;;;18.50;98.00;;;;;;5024538;28;20096;-59
2023/05/27 10:59:22;;;;;;;9.10;4.15;;;18.50;97.50;;;;;;5020051;28;20049;-59
2023/05/27 11:01:52;;;;;;;11.02;4.25;;;18.60;97.20;;;;;;5022518;28;20045;-60
2023/05/27 11:04:18;;;;;;;9.05;3.83;;;18.60;96.90;;;;;;5023851;28;20512;-60
2023/05/27 11:07:00;;;;;;;9.40;4.70;;;18.60;96.80;;;;;;5022654;28;20713;-60
2023/05/27 11:09:26;;;;;;;8.00;3.58;;;18.70;96.80;;;;;;5021722;28;20555;-60
2023/05/27 11:11:53;;;;;;;8.65;3.45;;;18.70;96.40;;;;;;5023025;28;20152;-66
2023/05/27 11:14:21;;;;;;;8.05;4.43;;;18.70;96.30;;;;;;5022319;28;20579;-61
2023/05/27 11:16:51;;;;;;;7.35;4.15;;;18.80;96.40;;;;;;5017111;28;20046;-61
2023/05/27 11:19:18;;;;;;;6.22;4.07;;;18.70;96.30;;;;;;5021506;28;20563;-61
2023/05/27 11:21:45;;;;;;;8.77;4.07;;;18.90;96.10;;;;;;5023415;28;20046;-61
2023/05/27 11:24:16;;;;;;;9.52;4.80;;;18.90;95.70;;;;;;5024816;28;20061;-60
2023/05/27 11:26:46;;;;;;;12.82;5.38;;;19.00;95.60;;;;;;5016756;28;20045;-60
2023/05/27 11:29:12;;;;;;;10.38;4.00;;;19.00;95.60;;;;;;5020823;28;20054;-61
2023/05/27 11:31:41;;;;;;;8.38;3.97;;;19.10;95.60;;;;;;5021676;28;20465;-61
2023/05/27 11:34:14;;;;;;;6.75;3.85;;;19.10;95.40;;;;;;5020064;28;20132;-61
2023/05/27 11:36:41;;;;;;;6.53;3.70;;;19.10;95.50;;;;;;5022273;28;20515;-61
2023/05/27 11:39:16;;;;;;;8.43;4.25;;;19.10;95.00;;;;;;5025267;28;20038;-62
2023/05/27 11:41:52;;;;;;;8.25;3.70;;;19.10;95.10;;;;;;5020547;28;20543;-62
2023/05/27 11:44:22;;;;;;;8.90;4.10;;;19.20;95.20;;;;;;5023375;28;21160;-61
2023/05/27 11:46:49;;;;;;;10.80;4.38;;;19.20;95.20;;;;;;5020629;28;20053;-62
2023/05/27 11:49:17;;;;;;;8.65;4.97;;;19.30;95.20;;;;;;5021330;28;20041;-61
2023/05/27 11:51:45;;;;;;;12.63;4.07;;;19.30;95.10;;;;;;5020165;28;20049;-61
2023/05/27 11:54:27;;;;;;;9.43;3.63;;;19.30;95.00;;;;;;5009777;28;20122;-61
2023/05/27 11:56:55;;;;;;;10.18;3.95;;;19.40;95.10;;;;;;5025573;28;20042;-63
2023/05/27 11:59:22;;;;;;;13.77;4.68;;;19.50;95.00;;;;;;5024478;28;20042;-61
2023/05/27 12:01:48;;;;;;;8.68;4.32;;;19.50;94.80;;;;;;5026090;28;20037;-61
2023/05/27 12:04:14;;;;;;;13.30;6.15;;;19.60;94.40;;;;;;5023419;28;20041;-60
2023/05/27 12:06:43;;;;;;;14.02;4.60;;;19.60;94.10;;;;;;5057411;28;20520;-62
2023/05/27 12:09:09;;;;;;;7.50;4.32;;;19.60;94.10;;;;;;5026177;28;20492;-60
2023/05/27 12:11:35;;;;;;;9.57;4.53;;;19.60;94.40;;;;;;5027353;28;20042;-61
2023/05/27 12:14:01;;;;;;;11.85;4.10;;;19.70;94.10;;;;;;5027108;28;20487;-62
2023/05/27 12:16:27;;;;;;;8.40;4.35;;;19.70;94.20;;;;;;5022391;28;20038;-62
2023/05/27 12:18:53;;;;;;;10.60;5.03;;;19.80;94.20;;;;;;4993436;28;20072;-62
2023/05/27 12:21:20;;;;;;;12.55;4.90;;;19.80;94.60;;;;;;5025512;28;20034;-60
2023/05/27 12:23:46;;;;;;;10.13;4.60;;;19.90;94.30;;;;;;5026779;28;20046;-61
2023/05/27 12:26:13;;;;;;;8.38;4.70;;;19.90;94.10;;;;;;5025819;28;20037;-61
2023/05/27 12:28:39;;;;;;;10.70;4.47;;;19.90;94.20;;;;;;5027031;28;20041;-58
2023/05/27 12:31:06;;;;;;;18.45;5.35;;;20.00;94.20;;;;;;5024578;28;20132;-57
2023/05/27 12:33:31;;;;;;;15.07;5.45;;;20.00;93.90;;;;;;5026134;28;20054;-57
2023/05/27 12:35:58;;;;;;;13.38;4.55;;;20.10;93.80;;;;;;5026674;28;20532;-57
2023/05/27 12:38:24;;;;;;;9.00;3.67;;;20.20;93.80;;;;;;5026767;28;20301;-57
2023/05/27 12:40:51;;;;;;;14.05;4.88;;;20.20;93.80;;;;;;5024793;28;20044;-57
2023/05/27 12:43:18;;;;;;;12.82;5.05;;;20.20;93.80;;;;;;5026984;28;20057;-58